sensor_id;sensor_type;location;lat;lon;timestamp;P1;durP1;ratioP1;P2;durP2;ratioP2
71562;SDS011;59391;52.504;13.438;2022-12-26T00:01:17;14.52;;;8.18;;
71562;SDS011;59391;52.504;13.438;2022-12-26T00:03:46;15.40;;;8.52;;
71562;SDS011;59391;52.504;13.438;2022-12-26T00:06:16;14.03;;;7.60;;
71562;SDS011;59391;52.504;13.438;2022-12-26T00:08:48;16.23;;;8.52;;
71562;SDS011;59391;52.504;13.438;2022-12-26T00:11:15;12.77;;;7.75;;
71562;SDS011;59391;52.504;13.438;2022-12-26T00:13:41;11.48;;;7.57;;
71562;SDS011;59391;52.504;13.438;2022-12-26T00:16:08;17.58;;;9.48;;
71562;SDS011;59391;52.504;13.438;2022-12-26T00:18:42;11.68;;;6.57;;
71562;SDS011;59391;52.504;13.438;2022-12-26T00:21:10;15.82;;;8.40;;
71562;SDS011;59391;52.504;13.438;2022-12-26T00:23:38;12.00;;;7.30;;
71562;SDS011;59391;52.504;13.438;2022-12-26T00:26:05;17.13;;;9.50;;
71562;SDS011;59391;52.504;13.438;2022-12-26T00:28:34;15.00;;;7.97;;
71562;SDS011;59391;52.504;13.438;2022-12-26T00:31:04;14.80;;;7.97;;
71562;SDS011;59391;52.504;13.438;2022-12-26T00:33:33;16.98;;;8.57;;
71562;SDS011;59391;52.504;13.438;2022-12-26T00:36:03;12.77;;;7.60;;
71562;SDS011;59391;52.504;13.438;2022-12-26T00:38:33;12.98;;;7.57;;
71562;SDS011;59391;52.504;13.438;2022-12-26T00:41:00;10.68;;;7.10;;
71562;SDS011;59391;52.504;13.438;2022-12-26T00:43:25;9.63;;;6.00;;
71562;SDS011;59391;52.504;13.438;2022-12-26T00:45:51;12.77;;;6.93;;
71562;SDS011;59391;52.504;13.438;2022-12-26T00:48:17;14.70;;;7.95;;
71562;SDS011;59391;52.504;13.438;2022-12-26T00:50:43;12.85;;;7.78;;
71562;SDS011;59391;52.504;13.438;2022-12-26T00:53:09;13.27;;;7.80;;
71562;SDS011;59391;52.504;13.438;2022-12-26T00:55:35;11.02;;;6.13;;
71562;SDS011;59391;52.504;13.438;2022-12-26T00:58:00;12.40;;;7.25;;
71562;SDS011;59391;52.504;13.438;2022-12-26T01:00:26;12.73;;;7.80;;
71562;SDS011;59391;52.504;13.438;2022-12-26T01:02:52;15.23;;;8.77;;
71562;SDS011;59391;52.504;13.438;2022-12-26T01:05:19;11.85;;;7.10;;
71562;SDS011;59391;52.504;13.438;2022-12-26T01:07:44;12.77;;;7.20;;
71562;SDS011;59391;52.504;13.438;2022-12-26T01:10:11;13.40;;;8.00;;
71562;SDS011;59391;52.504;13.438;2022-12-26T01:12:37;13.43;;;7.32;;
71562;SDS011;59391;52.504;13.438;2022-12-26T01:15:04;10.25;;;6.47;;
71562;SDS011;59391;52.504;13.438;2022-12-26T01:17:32;14.10;;;7.28;;
71562;SDS011;59391;52.504;13.438;2022-12-26T01:19:58;10.70;;;6.70;;
71562;SDS011;59391;52.504;13.438;2022-12-26T01:22:24;9.77;;;6.75;;
71562;SDS011;59391;52.504;13.438;2022-12-26T01:24:54;10.23;;;6.13;;
71562;SDS011;59391;52.504;13.438;2022-12-26T01:27:21;10.05;;;6.10;;
71562;SDS011;59391;52.504;13.438;2022-12-26T01:29:49;9.38;;;5.47;;
71562;SDS011;59391;52.504;13.438;2022-12-26T01:32:15;10.30;;;5.47;;
71562;SDS011;59391;52.504;13.438;2022-12-26T01:34:41;8.02;;;5.05;;
71562;SDS011;59391;52.504;13.438;2022-12-26T01:37:07;8.50;;;5.90;;
71562;SDS011;59391;52.504;13.438;2022-12-26T01:39:36;7.38;;;5.10;;
71562;SDS011;59391;52.504;13.438;2022-12-26T01:42:02;10.20;;;5.90;;
71562;SDS011;59391;52.504;13.438;2022-12-26T01:47:25;8.50;;;5.40;;
71562;SDS011;59391;52.504;13.438;2022-12-26T01:50:25;11.00;;;6.03;;
71562;SDS011;59391;52.504;13.438;2022-12-26T01:53:00;8.10;;;5.38;;
71562;SDS011;59391;52.504;13.438;2022-12-26T01:55:34;8.70;;;5.43;;
71562;SDS011;59391;52.504;13.438;2022-12-26T01:58:05;8.73;;;5.13;;
71562;SDS011;59391;52.504;13.438;2022-12-26T02:00:39;10.13;;;5.60;;
71562;SDS011;59391;52.504;13.438;2022-12-26T02:03:05;9.88;;;5.40;;
71562;SDS011;59391;52.504;13.438;2022-12-26T02:05:53;8.93;;;5.82;;
71562;SDS011;59391;52.504;13.438;2022-12-26T02:08:24;9.02;;;5.63;;
71562;SDS011;59391;52.504;13.438;2022-12-26T02:10:58;8.90;;;5.83;;
71562;SDS011;59391;52.504;13.438;2022-12-26T02:13:39;9.02;;;5.90;;
71562;SDS011;59391;52.504;13.438;2022-12-26T02:16:07;8.02;;;5.25;;
71562;SDS011;59391;52.504;13.438;2022-12-26T02:18:37;7.80;;;5.35;;
71562;SDS011;59391;52.504;13.438;2022-12-26T02:27:53;9.82;;;6.05;;
71562;SDS011;59391;52.504;13.438;2022-12-26T02:30:51;9.88;;;5.90;;
71562;SDS011;59391;52.504;13.438;2022-12-26T02:39:37;8.00;;;4.50;;
71562;SDS011;59391;52.504;13.438;2022-12-26T02:45:56;8.88;;;6.38;;
71562;SDS011;59391;52.504;13.438;2022-12-26T02:56:19;8.93;;;5.30;;
71562;SDS011;59391;52.504;13.438;2022-12-26T02:59:23;10.20;;;5.70;;
71562;SDS011;59391;52.504;13.438;2022-12-26T03:02:49;9.40;;;5.68;;
71562;SDS011;59391;52.504;13.438;2022-12-26T03:05:47;10.35;;;5.47;;
71562;SDS011;59391;52.504;13.438;2022-12-26T03:08:37;8.93;;;4.90;;
71562;SDS011;59391;52.504;13.438;2022-12-26T03:11:31;8.50;;;5.20;;
71562;SDS011;59391;52.504;13.438;2022-12-26T03:14:24;11.63;;;5.45;;
71562;SDS011;59391;52.504;13.438;2022-12-26T03:16:58;12.57;;;6.30;;
71562;SDS011;59391;52.504;13.438;2022-12-26T03:19:53;9.35;;;5.65;;
71562;SDS011;59391;52.504;13.438;2022-12-26T03:25:47;10.17;;;5.27;;
71562;SDS011;59391;52.504;13.438;2022-12-26T03:28:39;8.45;;;5.20;;
71562;SDS011;59391;52.504;13.438;2022-12-26T03:31:08;9.55;;;5.78;;
71562;SDS011;59391;52.504;13.438;2022-12-26T03:33:38;8.60;;;5.80;;
71562;SDS011;59391;52.504;13.438;2022-12-26T03:39:39;7.70;;;4.70;;
71562;SDS011;59391;52.504;13.438;2022-12-26T03:43:12;8.35;;;5.40;;
71562;SDS011;59391;52.504;13.438;2022-12-26T03:58:26;9.80;;;5.68;;
71562;SDS011;59391;52.504;13.438;2022-12-26T04:01:25;9.60;;;5.35;;
71562;SDS011;59391;52.504;13.438;2022-12-26T04:04:14;7.32;;;4.97;;
71562;SDS011;59391;52.504;13.438;2022-12-26T04:07:06;8.35;;;6.25;;
71562;SDS011;59391;52.504;13.438;2022-12-26T04:12:59;9.13;;;5.80;;
71562;SDS011;59391;52.504;13.438;2022-12-26T04:15:56;8.30;;;5.25;;
71562;SDS011;59391;52.504;13.438;2022-12-26T04:19:14;10.27;;;5.07;;
71562;SDS011;59391;52.504;13.438;2022-12-26T04:21:58;8.77;;;5.65;;
71562;SDS011;59391;52.504;13.438;2022-12-26T04:25:03;9.07;;;4.47;;
71562;SDS011;59391;52.504;13.438;2022-12-26T04:28:01;8.35;;;5.78;;
71562;SDS011;59391;52.504;13.438;2022-12-26T04:30:48;7.80;;;4.95;;
71562;SDS011;59391;52.504;13.438;2022-12-26T04:34:05;9.25;;;5.65;;
71562;SDS011;59391;52.504;13.438;2022-12-26T04:37:16;9.20;;;5.72;;
71562;SDS011;59391;52.504;13.438;2022-12-26T04:40:06;8.37;;;5.50;;
71562;SDS011;59391;52.504;13.438;2022-12-26T04:42:58;8.88;;;5.10;;
71562;SDS011;59391;52.504;13.438;2022-12-26T04:45:45;8.27;;;5.57;;
71562;SDS011;59391;52.504;13.438;2022-12-26T04:48:11;7.80;;;5.22;;
71562;SDS011;59391;52.504;13.438;2022-12-26T04:50:55;7.53;;;5.10;;
71562;SDS011;59391;52.504;13.438;2022-12-26T04:53:21;8.93;;;5.60;;
71562;SDS011;59391;52.504;13.438;2022-12-26T04:55:47;9.20;;;5.90;;
71562;SDS011;59391;52.504;13.438;2022-12-26T04:58:12;9.40;;;5.22;;
71562;SDS011;59391;52.504;13.438;2022-12-26T05:00:38;9.30;;;5.32;;
71562;SDS011;59391;52.504;13.438;2022-12-26T05:03:03;7.68;;;5.22;;
71562;SDS011;59391;52.504;13.438;2022-12-26T05:05:49;7.82;;;5.38;;
71562;SDS011;59391;52.504;13.438;2022-12-26T05:08:38;7.88;;;4.75;;
71562;SDS011;59391;52.504;13.438;2022-12-26T05:11:26;8.60;;;5.57;;
71562;SDS011;59391;52.504;13.438;2022-12-26T05:13:55;8.32;;;5.30;;
71562;SDS011;59391;52.504;13.438;2022-12-26T05:16:22;8.05;;;4.63;;
71562;SDS011;59391;52.504;13.438;2022-12-26T05:19:09;8.35;;;4.65;;
71562;SDS011;59391;52.504;13.438;2022-12-26T05:21:55;7.60;;;5.13;;
71562;SDS011;59391;52.504;13.438;2022-12-26T05:24:41;7.47;;;4.57;;
71562;SDS011;59391;52.504;13.438;2022-12-26T05:27:29;8.55;;;5.28;;
71562;SDS011;59391;52.504;13.438;2022-12-26T05:30:25;7.55;;;4.93;;
71562;SDS011;59391;52.504;13.438;2022-12-26T05:32:51;8.03;;;5.47;;
71562;SDS011;59391;52.504;13.438;2022-12-26T05:35:35;8.07;;;5.30;;
71562;SDS011;59391;52.504;13.438;2022-12-26T05:38:03;7.82;;;5.60;;
71562;SDS011;59391;52.504;13.438;2022-12-26T05:40:28;7.10;;;5.20;;
71562;SDS011;59391;52.504;13.438;2022-12-26T05:42:54;8.35;;;5.03;;
71562;SDS011;59391;52.504;13.438;2022-12-26T05:45:20;7.07;;;4.70;;
71562;SDS011;59391;52.504;13.438;2022-12-26T05:47:45;8.30;;;4.80;;
71562;SDS011;59391;52.504;13.438;2022-12-26T05:50:11;9.97;;;5.60;;
71562;SDS011;59391;52.504;13.438;2022-12-26T05:52:38;9.57;;;5.70;;
71562;SDS011;59391;52.504;13.438;2022-12-26T05:55:03;7.53;;;4.67;;
71562;SDS011;59391;52.504;13.438;2022-12-26T05:57:30;8.18;;;5.25;;
71562;SDS011;59391;52.504;13.438;2022-12-26T05:59:56;6.78;;;5.07;;
71562;SDS011;59391;52.504;13.438;2022-12-26T06:02:22;7.83;;;4.80;;
71562;SDS011;59391;52.504;13.438;2022-12-26T06:04:47;8.07;;;4.82;;
71562;SDS011;59391;52.504;13.438;2022-12-26T06:07:13;7.37;;;4.70;;
71562;SDS011;59391;52.504;13.438;2022-12-26T06:09:38;8.38;;;5.40;;
71562;SDS011;59391;52.504;13.438;2022-12-26T06:12:04;6.50;;;4.43;;
71562;SDS011;59391;52.504;13.438;2022-12-26T06:14:31;7.57;;;4.60;;
71562;SDS011;59391;52.504;13.438;2022-12-26T06:16:56;8.27;;;5.30;;
71562;SDS011;59391;52.504;13.438;2022-12-26T06:19:22;7.85;;;4.80;;
71562;SDS011;59391;52.504;13.438;2022-12-26T06:21:48;8.37;;;5.13;;
71562;SDS011;59391;52.504;13.438;2022-12-26T06:24:13;7.53;;;4.63;;
71562;SDS011;59391;52.504;13.438;2022-12-26T06:26:39;8.52;;;5.00;;
71562;SDS011;59391;52.504;13.438;2022-12-26T06:29:05;7.55;;;4.88;;
71562;SDS011;59391;52.504;13.438;2022-12-26T06:31:31;7.38;;;4.90;;
71562;SDS011;59391;52.504;13.438;2022-12-26T06:33:56;7.70;;;4.78;;
71562;SDS011;59391;52.504;13.438;2022-12-26T06:36:23;6.90;;;4.47;;
71562;SDS011;59391;52.504;13.438;2022-12-26T06:38:50;8.13;;;5.25;;
71562;SDS011;59391;52.504;13.438;2022-12-26T06:41:17;7.00;;;4.78;;
71562;SDS011;59391;52.504;13.438;2022-12-26T06:43:46;7.32;;;5.20;;
71562;SDS011;59391;52.504;13.438;2022-12-26T06:46:13;6.40;;;4.53;;
71562;SDS011;59391;52.504;13.438;2022-12-26T06:48:45;7.18;;;4.65;;
71562;SDS011;59391;52.504;13.438;2022-12-26T06:51:12;6.60;;;4.68;;
71562;SDS011;59391;52.504;13.438;2022-12-26T06:53:44;6.82;;;4.20;;
71562;SDS011;59391;52.504;13.438;2022-12-26T06:56:13;8.15;;;4.53;;
71562;SDS011;59391;52.504;13.438;2022-12-26T06:58:47;7.00;;;4.60;;
71562;SDS011;59391;52.504;13.438;2022-12-26T07:01:18;6.38;;;4.50;;
71562;SDS011;59391;52.504;13.438;2022-12-26T07:03:44;7.13;;;4.65;;
71562;SDS011;59391;52.504;13.438;2022-12-26T07:06:11;7.13;;;4.70;;
71562;SDS011;59391;52.504;13.438;2022-12-26T07:08:59;7.53;;;4.75;;
71562;SDS011;59391;52.504;13.438;2022-12-26T07:11:35;7.17;;;4.30;;
71562;SDS011;59391;52.504;13.438;2022-12-26T07:14:03;7.80;;;4.30;;
71562;SDS011;59391;52.504;13.438;2022-12-26T07:16:29;6.82;;;4.70;;
71562;SDS011;59391;52.504;13.438;2022-12-26T07:18:57;7.82;;;4.88;;
71562;SDS011;59391;52.504;13.438;2022-12-26T07:21:24;8.30;;;4.40;;
71562;SDS011;59391;52.504;13.438;2022-12-26T07:23:53;7.95;;;4.90;;
71562;SDS011;59391;52.504;13.438;2022-12-26T07:26:20;7.63;;;4.88;;
71562;SDS011;59391;52.504;13.438;2022-12-26T07:28:47;7.18;;;4.88;;
71562;SDS011;59391;52.504;13.438;2022-12-26T07:31:16;8.00;;;4.63;;
71562;SDS011;59391;52.504;13.438;2022-12-26T07:33:51;8.38;;;5.35;;
71562;SDS011;59391;52.504;13.438;2022-12-26T07:36:20;7.30;;;4.85;;
71562;SDS011;59391;52.504;13.438;2022-12-26T07:38:49;7.82;;;4.57;;
71562;SDS011;59391;52.504;13.438;2022-12-26T07:41:14;6.60;;;4.67;;
71562;SDS011;59391;52.504;13.438;2022-12-26T07:43:59;7.28;;;5.03;;
71562;SDS011;59391;52.504;13.438;2022-12-26T07:46:24;7.95;;;5.20;;
71562;SDS011;59391;52.504;13.438;2022-12-26T07:48:50;8.37;;;5.40;;
71562;SDS011;59391;52.504;13.438;2022-12-26T07:51:16;9.80;;;6.20;;
71562;SDS011;59391;52.504;13.438;2022-12-26T07:53:41;7.82;;;5.50;;
71562;SDS011;59391;52.504;13.438;2022-12-26T07:56:07;8.60;;;5.90;;
71562;SDS011;59391;52.504;13.438;2022-12-26T07:58:33;8.85;;;5.55;;
71562;SDS011;59391;52.504;13.438;2022-12-26T08:01:00;9.38;;;5.70;;
71562;SDS011;59391;52.504;13.438;2022-12-26T08:03:26;9.07;;;5.70;;
71562;SDS011;59391;52.504;13.438;2022-12-26T08:05:52;8.45;;;5.75;;
71562;SDS011;59391;52.504;13.438;2022-12-26T08:08:18;8.67;;;5.50;;
71562;SDS011;59391;52.504;13.438;2022-12-26T08:10:43;8.02;;;5.60;;
71562;SDS011;59391;52.504;13.438;2022-12-26T08:13:09;6.80;;;5.00;;
71562;SDS011;59391;52.504;13.438;2022-12-26T08:15:38;7.50;;;5.25;;
71562;SDS011;59391;52.504;13.438;2022-12-26T08:18:05;7.07;;;4.70;;
71562;SDS011;59391;52.504;13.438;2022-12-26T08:20:31;8.00;;;5.47;;
71562;SDS011;59391;52.504;13.438;2022-12-26T08:22:57;8.35;;;5.00;;
71562;SDS011;59391;52.504;13.438;2022-12-26T08:25:23;7.37;;;4.70;;
71562;SDS011;59391;52.504;13.438;2022-12-26T08:27:49;9.15;;;5.18;;
71562;SDS011;59391;52.504;13.438;2022-12-26T08:30:14;8.43;;;5.35;;
71562;SDS011;59391;52.504;13.438;2022-12-26T08:32:41;9.07;;;5.50;;
71562;SDS011;59391;52.504;13.438;2022-12-26T08:35:07;7.50;;;4.85;;
71562;SDS011;59391;52.504;13.438;2022-12-26T08:37:33;7.72;;;4.60;;
71562;SDS011;59391;52.504;13.438;2022-12-26T08:40:09;8.82;;;5.55;;
71562;SDS011;59391;52.504;13.438;2022-12-26T08:42:35;8.70;;;4.63;;
71562;SDS011;59391;52.504;13.438;2022-12-26T08:45:01;7.70;;;4.45;;
71562;SDS011;59391;52.504;13.438;2022-12-26T08:47:26;8.27;;;5.13;;
71562;SDS011;59391;52.504;13.438;2022-12-26T08:49:52;7.50;;;5.15;;
71562;SDS011;59391;52.504;13.438;2022-12-26T08:52:17;7.30;;;4.50;;
71562;SDS011;59391;52.504;13.438;2022-12-26T08:54:43;8.05;;;4.97;;
71562;SDS011;59391;52.504;13.438;2022-12-26T08:57:09;10.63;;;5.80;;
71562;SDS011;59391;52.504;13.438;2022-12-26T08:59:34;8.80;;;5.30;;
71562;SDS011;59391;52.504;13.438;2022-12-26T09:02:00;8.48;;;4.85;;
71562;SDS011;59391;52.504;13.438;2022-12-26T09:04:26;10.30;;;5.30;;
71562;SDS011;59391;52.504;13.438;2022-12-26T09:06:51;8.98;;;5.60;;
71562;SDS011;59391;52.504;13.438;2022-12-26T09:09:17;10.77;;;5.33;;
71562;SDS011;59391;52.504;13.438;2022-12-26T09:11:43;9.18;;;5.40;;
71562;SDS011;59391;52.504;13.438;2022-12-26T09:14:09;9.60;;;5.70;;
71562;SDS011;59391;52.504;13.438;2022-12-26T09:16:37;9.07;;;5.63;;
71562;SDS011;59391;52.504;13.438;2022-12-26T09:19:08;10.68;;;7.10;;
71562;SDS011;59391;52.504;13.438;2022-12-26T09:21:36;9.77;;;6.00;;
71562;SDS011;59391;52.504;13.438;2022-12-26T09:24:03;9.07;;;5.32;;
71562;SDS011;59391;52.504;13.438;2022-12-26T09:26:33;9.82;;;6.57;;
71562;SDS011;59391;52.504;13.438;2022-12-26T09:28:59;8.95;;;5.32;;
71562;SDS011;59391;52.504;13.438;2022-12-26T09:31:27;8.85;;;5.70;;
71562;SDS011;59391;52.504;13.438;2022-12-26T09:33:56;8.27;;;5.70;;
71562;SDS011;59391;52.504;13.438;2022-12-26T09:36:25;9.57;;;5.75;;
71562;SDS011;59391;52.504;13.438;2022-12-26T09:38:57;9.43;;;5.88;;
71562;SDS011;59391;52.504;13.438;2022-12-26T09:41:36;7.93;;;5.03;;
71562;SDS011;59391;52.504;13.438;2022-12-26T09:44:36;9.35;;;6.00;;
71562;SDS011;59391;52.504;13.438;2022-12-26T09:50:28;7.70;;;4.82;;
71562;SDS011;59391;52.504;13.438;2022-12-26T09:53:05;8.13;;;5.13;;
71562;SDS011;59391;52.504;13.438;2022-12-26T10:01:09;7.88;;;4.93;;
71562;SDS011;59391;52.504;13.438;2022-12-26T10:03:50;6.93;;;4.30;;
71562;SDS011;59391;52.504;13.438;2022-12-26T10:06:21;8.32;;;5.07;;
71562;SDS011;59391;52.504;13.438;2022-12-26T10:09:07;7.47;;;4.53;;
71562;SDS011;59391;52.504;13.438;2022-12-26T10:12:24;6.75;;;4.60;;
71562;SDS011;59391;52.504;13.438;2022-12-26T10:21:04;8.63;;;4.70;;
71562;SDS011;59391;52.504;13.438;2022-12-26T10:23:56;6.75;;;4.10;;
71562;SDS011;59391;52.504;13.438;2022-12-26T10:30:06;7.10;;;4.43;;
71562;SDS011;59391;52.504;13.438;2022-12-26T10:33:37;7.00;;;4.25;;
71562;SDS011;59391;52.504;13.438;2022-12-26T10:36:14;7.38;;;4.40;;
71562;SDS011;59391;52.504;13.438;2022-12-26T10:39:55;6.88;;;4.05;;
71562;SDS011;59391;52.504;13.438;2022-12-26T10:42:19;9.38;;;4.40;;
71562;SDS011;59391;52.504;13.438;2022-12-26T10:44:57;8.13;;;4.10;;
71562;SDS011;59391;52.504;13.438;2022-12-26T10:47:29;6.47;;;4.38;;
71562;SDS011;59391;52.504;13.438;2022-12-26T10:50:02;8.07;;;4.30;;
71562;SDS011;59391;52.504;13.438;2022-12-26T10:52:36;7.80;;;4.10;;
71562;SDS011;59391;52.504;13.438;2022-12-26T10:55:17;7.03;;;4.40;;
71562;SDS011;59391;52.504;13.438;2022-12-26T10:57:49;8.25;;;4.72;;
71562;SDS011;59391;52.504;13.438;2022-12-26T11:00:24;5.72;;;3.72;;
71562;SDS011;59391;52.504;13.438;2022-12-26T11:03:02;6.82;;;4.10;;
71562;SDS011;59391;52.504;13.438;2022-12-26T11:05:36;5.97;;;4.10;;
71562;SDS011;59391;52.504;13.438;2022-12-26T11:11:01;9.90;;;4.57;;
71562;SDS011;59391;52.504;13.438;2022-12-26T11:13:36;6.18;;;4.07;;
71562;SDS011;59391;52.504;13.438;2022-12-26T11:16:09;5.72;;;3.67;;
71562;SDS011;59391;52.504;13.438;2022-12-26T11:18:37;6.88;;;4.20;;
71562;SDS011;59391;52.504;13.438;2022-12-26T11:23:48;6.80;;;4.18;;
71562;SDS011;59391;52.504;13.438;2022-12-26T11:26:26;6.05;;;3.83;;
71562;SDS011;59391;52.504;13.438;2022-12-26T11:29:12;6.15;;;4.35;;
71562;SDS011;59391;52.504;13.438;2022-12-26T11:31:57;6.10;;;3.90;;
71562;SDS011;59391;52.504;13.438;2022-12-26T11:34:31;6.35;;;4.22;;
71562;SDS011;59391;52.504;13.438;2022-12-26T11:37:02;6.57;;;4.07;;
71562;SDS011;59391;52.504;13.438;2022-12-26T11:39:32;8.45;;;3.92;;
71562;SDS011;59391;52.504;13.438;2022-12-26T11:42:08;6.20;;;4.43;;
71562;SDS011;59391;52.504;13.438;2022-12-26T11:44:44;6.00;;;3.95;;
71562;SDS011;59391;52.504;13.438;2022-12-26T11:47:16;6.50;;;4.20;;
71562;SDS011;59391;52.504;13.438;2022-12-26T11:52:32;7.28;;;4.93;;
71562;SDS011;59391;52.504;13.438;2022-12-26T12:09:22;8.93;;;5.28;;
71562;SDS011;59391;52.504;13.438;2022-12-26T12:18:04;7.50;;;5.32;;
71562;SDS011;59391;52.504;13.438;2022-12-26T12:21:17;7.60;;;4.65;;
71562;SDS011;59391;52.504;13.438;2022-12-26T12:27:32;8.15;;;4.80;;
71562;SDS011;59391;52.504;13.438;2022-12-26T12:30:27;9.25;;;5.40;;
71562;SDS011;59391;52.504;13.438;2022-12-26T12:36:16;11.20;;;6.38;;
71562;SDS011;59391;52.504;13.438;2022-12-26T12:41:39;8.88;;;5.32;;
71562;SDS011;59391;52.504;13.438;2022-12-26T12:44:44;7.57;;;4.55;;
71562;SDS011;59391;52.504;13.438;2022-12-26T12:48:16;8.18;;;5.07;;
71562;SDS011;59391;52.504;13.438;2022-12-26T13:11:00;7.75;;;4.22;;
71562;SDS011;59391;52.504;13.438;2022-12-26T13:16:45;8.93;;;5.07;;
71562;SDS011;59391;52.504;13.438;2022-12-26T13:19:27;10.65;;;7.22;;
71562;SDS011;59391;52.504;13.438;2022-12-26T13:22:05;8.07;;;4.90;;
71562;SDS011;59391;52.504;13.438;2022-12-26T13:24:42;8.55;;;4.82;;
71562;SDS011;59391;52.504;13.438;2022-12-26T13:27:18;9.40;;;5.60;;
71562;SDS011;59391;52.504;13.438;2022-12-26T13:29:50;8.98;;;5.68;;
71562;SDS011;59391;52.504;13.438;2022-12-26T13:32:22;8.93;;;5.55;;
71562;SDS011;59391;52.504;13.438;2022-12-26T13:34:52;8.45;;;4.97;;
71562;SDS011;59391;52.504;13.438;2022-12-26T13:37:51;8.93;;;5.68;;
71562;SDS011;59391;52.504;13.438;2022-12-26T13:40:23;8.57;;;5.32;;
71562;SDS011;59391;52.504;13.438;2022-12-26T13:43:13;9.38;;;5.38;;
71562;SDS011;59391;52.504;13.438;2022-12-26T13:46:13;8.27;;;5.07;;
71562;SDS011;59391;52.504;13.438;2022-12-26T13:54:36;9.38;;;6.10;;
71562;SDS011;59391;52.504;13.438;2022-12-26T13:57:19;8.98;;;4.82;;
71562;SDS011;59391;52.504;13.438;2022-12-26T14:03:25;14.68;;;7.68;;
71562;SDS011;59391;52.504;13.438;2022-12-26T14:06:15;18.90;;;9.25;;
71562;SDS011;59391;52.504;13.438;2022-12-26T14:09:11;12.35;;;6.70;;
71562;SDS011;59391;52.504;13.438;2022-12-26T14:18:06;10.15;;;6.20;;
71562;SDS011;59391;52.504;13.438;2022-12-26T14:21:15;11.85;;;7.03;;
71562;SDS011;59391;52.504;13.438;2022-12-26T14:23:58;11.73;;;6.90;;
71562;SDS011;59391;52.504;13.438;2022-12-26T14:27:37;11.35;;;7.03;;
71562;SDS011;59391;52.504;13.438;2022-12-26T14:33:00;7.32;;;4.32;;
71562;SDS011;59391;52.504;13.438;2022-12-26T14:44:53;9.77;;;6.07;;
71562;SDS011;59391;52.504;13.438;2022-12-26T14:47:39;8.95;;;5.72;;
71562;SDS011;59391;52.504;13.438;2022-12-26T14:55:47;8.52;;;4.80;;
71562;SDS011;59391;52.504;13.438;2022-12-26T15:00:54;11.13;;;6.20;;
71562;SDS011;59391;52.504;13.438;2022-12-26T15:09:56;13.25;;;6.70;;
71562;SDS011;59391;52.504;13.438;2022-12-26T15:15:59;8.40;;;4.97;;
71562;SDS011;59391;52.504;13.438;2022-12-26T15:28:00;7.22;;;5.13;;
71562;SDS011;59391;52.504;13.438;2022-12-26T15:34:14;9.02;;;5.50;;
71562;SDS011;59391;52.504;13.438;2022-12-26T15:40:04;8.85;;;5.70;;
71562;SDS011;59391;52.504;13.438;2022-12-26T15:42:47;7.05;;;4.78;;
71562;SDS011;59391;52.504;13.438;2022-12-26T15:45:42;8.38;;;5.07;;
71562;SDS011;59391;52.504;13.438;2022-12-26T15:48:23;10.13;;;5.57;;
71562;SDS011;59391;52.504;13.438;2022-12-26T16:05:10;10.10;;;6.13;;
71562;SDS011;59391;52.504;13.438;2022-12-26T16:07:53;11.65;;;6.80;;
71562;SDS011;59391;52.504;13.438;2022-12-26T16:11:00;11.00;;;6.28;;
71562;SDS011;59391;52.504;13.438;2022-12-26T16:13:50;9.00;;;6.00;;
71562;SDS011;59391;52.504;13.438;2022-12-26T16:22:02;9.05;;;5.15;;
71562;SDS011;59391;52.504;13.438;2022-12-26T16:24:52;7.63;;;4.80;;
71562;SDS011;59391;52.504;13.438;2022-12-26T16:27:20;9.55;;;5.78;;
71562;SDS011;59391;52.504;13.438;2022-12-26T16:29:56;7.65;;;5.10;;
71562;SDS011;59391;52.504;13.438;2022-12-26T16:32:33;10.52;;;5.95;;
71562;SDS011;59391;52.504;13.438;2022-12-26T16:35:02;9.50;;;4.90;;
71562;SDS011;59391;52.504;13.438;2022-12-26T16:37:30;7.47;;;3.80;;
71562;SDS011;59391;52.504;13.438;2022-12-26T16:40:14;8.02;;;4.82;;
71562;SDS011;59391;52.504;13.438;2022-12-26T16:45:56;6.95;;;4.72;;
71562;SDS011;59391;52.504;13.438;2022-12-26T16:48:28;8.52;;;4.97;;
71562;SDS011;59391;52.504;13.438;2022-12-26T16:51:01;7.40;;;3.85;;
71562;SDS011;59391;52.504;13.438;2022-12-26T16:59:02;9.93;;;4.78;;
71562;SDS011;59391;52.504;13.438;2022-12-26T17:01:36;11.27;;;6.00;;
71562;SDS011;59391;52.504;13.438;2022-12-26T17:04:15;13.05;;;6.07;;
71562;SDS011;59391;52.504;13.438;2022-12-26T17:06:52;12.43;;;6.38;;
71562;SDS011;59391;52.504;13.438;2022-12-26T17:09:24;10.73;;;6.20;;
71562;SDS011;59391;52.504;13.438;2022-12-26T17:11:55;11.10;;;6.32;;
71562;SDS011;59391;52.504;13.438;2022-12-26T17:14:32;8.43;;;4.80;;
71562;SDS011;59391;52.504;13.438;2022-12-26T17:17:46;8.40;;;4.68;;
71562;SDS011;59391;52.504;13.438;2022-12-26T17:22:50;8.43;;;4.30;;
71562;SDS011;59391;52.504;13.438;2022-12-26T17:30:34;6.40;;;4.13;;
71562;SDS011;59391;52.504;13.438;2022-12-26T17:33:11;11.95;;;4.70;;
71562;SDS011;59391;52.504;13.438;2022-12-26T17:35:46;9.75;;;4.60;;
71562;SDS011;59391;52.504;13.438;2022-12-26T17:38:38;8.95;;;4.88;;
71562;SDS011;59391;52.504;13.438;2022-12-26T17:41:05;8.85;;;5.05;;
71562;SDS011;59391;52.504;13.438;2022-12-26T17:43:35;9.00;;;4.93;;
71562;SDS011;59391;52.504;13.438;2022-12-26T17:46:04;8.43;;;4.35;;
71562;SDS011;59391;52.504;13.438;2022-12-26T17:48:33;5.90;;;3.50;;
71562;SDS011;59391;52.504;13.438;2022-12-26T17:51:02;6.85;;;3.90;;
71562;SDS011;59391;52.504;13.438;2022-12-26T17:53:36;7.35;;;4.03;;
71562;SDS011;59391;52.504;13.438;2022-12-26T17:56:07;6.30;;;3.72;;
71562;SDS011;59391;52.504;13.438;2022-12-26T17:58:43;6.20;;;3.50;;
71562;SDS011;59391;52.504;13.438;2022-12-26T18:01:09;5.78;;;3.72;;
71562;SDS011;59391;52.504;13.438;2022-12-26T18:03:35;6.23;;;3.60;;
71562;SDS011;59391;52.504;13.438;2022-12-26T18:06:01;5.72;;;3.35;;
71562;SDS011;59391;52.504;13.438;2022-12-26T18:08:28;5.80;;;3.20;;
71562;SDS011;59391;52.504;13.438;2022-12-26T18:10:57;5.38;;;3.47;;
71562;SDS011;59391;52.504;13.438;2022-12-26T18:13:25;6.45;;;3.22;;
71562;SDS011;59391;52.504;13.438;2022-12-26T18:15:51;5.05;;;3.03;;
71562;SDS011;59391;52.504;13.438;2022-12-26T18:20:54;6.37;;;4.10;;
71562;SDS011;59391;52.504;13.438;2022-12-26T18:23:20;7.15;;;3.65;;
71562;SDS011;59391;52.504;13.438;2022-12-26T18:25:47;5.47;;;3.80;;
71562;SDS011;59391;52.504;13.438;2022-12-26T18:28:13;6.80;;;3.87;;
71562;SDS011;59391;52.504;13.438;2022-12-26T18:30:41;6.43;;;3.38;;
71562;SDS011;59391;52.504;13.438;2022-12-26T18:33:08;5.07;;;3.33;;
71562;SDS011;59391;52.504;13.438;2022-12-26T18:35:36;4.82;;;3.47;;
71562;SDS011;59391;52.504;13.438;2022-12-26T18:38:20;5.65;;;3.42;;
71562;SDS011;59391;52.504;13.438;2022-12-26T18:40:49;6.60;;;3.40;;
71562;SDS011;59391;52.504;13.438;2022-12-26T18:43:19;5.20;;;3.30;;
71562;SDS011;59391;52.504;13.438;2022-12-26T18:45:45;7.18;;;4.28;;
71562;SDS011;59391;52.504;13.438;2022-12-26T18:48:17;5.38;;;3.70;;
71562;SDS011;59391;52.504;13.438;2022-12-26T18:50:46;5.30;;;3.45;;
71562;SDS011;59391;52.504;13.438;2022-12-26T18:53:12;6.27;;;3.43;;
71562;SDS011;59391;52.504;13.438;2022-12-26T18:55:38;5.60;;;3.00;;
71562;SDS011;59391;52.504;13.438;2022-12-26T18:58:05;5.18;;;3.10;;
71562;SDS011;59391;52.504;13.438;2022-12-26T19:00:31;5.13;;;3.17;;
71562;SDS011;59391;52.504;13.438;2022-12-26T19:03:00;5.50;;;3.10;;
71562;SDS011;59391;52.504;13.438;2022-12-26T19:05:27;4.40;;;2.63;;
71562;SDS011;59391;52.504;13.438;2022-12-26T19:07:57;4.43;;;2.60;;